createdAt,value
2019-02-07T00:02:10.327Z,0.60
2019-02-07T00:04:39.538Z,0.70
2019-02-07T00:07:09.372Z,0.70
2019-02-07T00:09:38.613Z,0.70
2019-02-07T00:12:08.592Z,0.70
2019-02-07T00:14:56.991Z,0.70
2019-02-07T00:17:26.512Z,0.70
2019-02-07T00:19:56.183Z,0.70
2019-02-07T00:22:25.851Z,0.70
2019-02-07T00:24:55.144Z,0.70
2019-02-07T00:27:24.523Z,0.70
2019-02-07T00:29:54.160Z,0.70
2019-02-07T00:32:23.441Z,0.70
2019-02-07T00:34:53.339Z,0.70
2019-02-07T00:37:22.935Z,0.70
2019-02-07T00:39:53.075Z,0.60
2019-02-07T00:42:22.348Z,0.60
2019-02-07T00:44:52.281Z,0.60
2019-02-07T00:47:22.550Z,0.60
2019-02-07T00:49:51.904Z,0.60
2019-02-07T00:52:21.072Z,0.60
2019-02-07T00:54:50.632Z,0.70
2019-02-07T00:57:19.993Z,0.70
2019-02-07T00:59:49.217Z,0.60
2019-02-07T01:02:18.783Z,0.60
2019-02-07T01:04:48.279Z,0.60
2019-02-07T01:07:17.575Z,0.60
2019-02-07T01:09:46.787Z,0.60
2019-02-07T01:12:16.057Z,0.60
2019-02-07T01:14:45.653Z,0.70
2019-02-07T01:17:14.999Z,0.70
2019-02-07T01:19:44.248Z,0.70
2019-02-07T01:22:13.561Z,0.80
2019-02-07T01:24:43.214Z,0.80
2019-02-07T01:27:12.505Z,0.80
2019-02-07T01:29:42.541Z,0.80
2019-02-07T01:32:12.099Z,0.80
2019-02-07T01:34:41.331Z,0.80
2019-02-07T01:37:10.775Z,0.80
2019-02-07T01:39:40.630Z,0.90
2019-02-07T01:42:10.120Z,0.90
2019-02-07T01:44:39.664Z,0.90
2019-02-07T01:47:09.099Z,0.80
2019-02-07T01:49:38.365Z,0.90
2019-02-07T01:52:07.699Z,0.80
2019-02-07T01:54:37.030Z,0.90
2019-02-07T01:57:06.333Z,0.80
2019-02-07T01:59:35.559Z,0.80
2019-02-07T02:02:05.531Z,0.80
2019-02-07T02:04:35.234Z,0.80
2019-02-07T02:07:04.588Z,0.80
2019-02-07T02:09:33.870Z,0.80
2019-02-07T02:12:03.778Z,0.80
2019-02-07T02:14:33.082Z,0.80
2019-02-07T02:17:02.373Z,0.80
2019-02-07T02:19:31.720Z,0.70
2019-02-07T02:22:01.446Z,0.80
2019-02-07T02:24:30.621Z,0.80
2019-02-07T02:27:00.276Z,0.80
2019-02-07T02:29:29.652Z,0.80
2019-02-07T02:31:59.267Z,0.80
2019-02-07T02:34:28.429Z,0.80
2019-02-07T02:36:57.751Z,0.80
2019-02-07T02:39:27.432Z,0.80
2019-02-07T02:41:56.758Z,0.90
2019-02-07T02:44:26.187Z,0.90
2019-02-07T02:46:55.675Z,0.90
2019-02-07T02:49:25.208Z,0.90
2019-02-07T02:51:54.371Z,0.90
2019-02-07T02:54:42.844Z,0.90
2019-02-07T02:57:12.589Z,0.90
2019-02-07T02:59:42.043Z,0.90
2019-02-07T03:02:37.337Z,0.90
2019-02-07T03:05:43.709Z,0.90
2019-02-07T03:08:30.420Z,0.90
2019-02-07T03:11:17.596Z,0.80
2019-02-07T03:14:04.807Z,0.90
2019-02-07T03:16:51.758Z,0.90
2019-02-07T03:19:55.472Z,0.90
2019-02-07T03:22:44.356Z,0.90
2019-02-07T03:25:49.994Z,0.90
2019-02-07T03:28:41.528Z,0.90
2019-02-07T03:31:30.712Z,0.90
2019-02-07T03:34:17.464Z,0.90
2019-02-07T03:37:05.719Z,0.90
2019-02-07T03:39:54.391Z,0.90
2019-02-07T03:42:37.266Z,0.80
2019-02-07T03:45:25.839Z,0.80
2019-02-07T03:48:13.256Z,0.90
2019-02-07T03:51:20.186Z,0.80
2019-02-07T03:54:11.037Z,0.80
2019-02-07T03:56:52.131Z,0.80
2019-02-07T03:59:46.684Z,0.80
2019-02-07T04:02:41.105Z,0.80
2019-02-07T04:05:28.524Z,0.80
2019-02-07T04:08:25.956Z,0.80
2019-02-07T04:11:32.910Z,0.80
2019-02-07T04:14:14.659Z,0.80
2019-02-07T04:17:03.510Z,0.80
2019-02-07T04:19:55.203Z,0.80
2019-02-07T04:23:01.568Z,0.90
2019-02-07T04:25:44.699Z,0.90
2019-02-07T04:28:42.163Z,0.90
2019-02-07T04:31:30.664Z,0.90
2019-02-07T04:34:18.937Z,0.90
2019-02-07T04:37:01.579Z,0.90
2019-02-07T04:39:53.436Z,0.90
2019-02-07T04:42:31.345Z,0.90
2019-02-07T04:45:23.000Z,0.90
2019-02-07T04:48:10.269Z,0.90
2019-02-07T04:51:03.269Z,0.90
2019-02-07T04:53:55.010Z,1.00
2019-02-07T04:56:49.259Z,0.90
2019-02-07T04:59:26.006Z,0.90
2019-02-07T05:02:11.721Z,0.90
2019-02-07T05:04:53.322Z,0.90
2019-02-07T05:07:35.601Z,0.90
2019-02-07T05:10:28.379Z,0.90
2019-02-07T05:13:15.787Z,0.90
2019-02-07T05:16:03.131Z,0.90
2019-02-07T05:18:47.828Z,0.90
2019-02-07T05:21:56.166Z,0.90
2019-02-07T05:24:34.658Z,0.90
2019-02-07T05:27:34.993Z,0.90
2019-02-07T05:30:19.947Z,0.80
2019-02-07T05:33:06.557Z,0.80
2019-02-07T05:35:53.927Z,0.80
2019-02-07T05:38:42.170Z,0.70
2019-02-07T05:41:30.261Z,0.70
2019-02-07T05:44:17.441Z,0.70
2019-02-07T05:47:04.351Z,0.70
2019-02-07T05:49:52.620Z,0.70
2019-02-07T05:52:46.802Z,0.70
2019-02-07T05:55:34.109Z,0.70
2019-02-07T05:58:21.726Z,0.70
2019-02-07T06:01:16.125Z,0.70
2019-02-07T06:04:04.377Z,0.60
2019-02-07T06:06:42.293Z,0.60
2019-02-07T06:09:49.148Z,0.60
2019-02-07T06:12:36.124Z,0.60
2019-02-07T06:15:25.181Z,0.60
2019-02-07T06:18:24.271Z,0.60
2019-02-07T06:21:12.791Z,0.60
2019-02-07T06:23:59.658Z,0.70
2019-02-07T06:26:46.458Z,0.70
2019-02-07T06:29:40.463Z,0.70
2019-02-07T06:32:21.971Z,0.70
2019-02-07T06:35:08.375Z,0.70
2019-02-07T06:38:04.113Z,0.70
2019-02-07T06:40:55.103Z,0.70
2019-02-07T06:43:46.482Z,0.80
2019-02-07T06:46:40.696Z,0.80
2019-02-07T06:49:38.092Z,0.90
2019-02-07T06:52:28.834Z,1.00
2019-02-07T06:55:12.551Z,1.10
2019-02-07T06:58:01.008Z,1.10
2019-02-07T07:00:42.735Z,1.10
2019-02-07T07:03:29.779Z,1.10
2019-02-07T07:06:27.388Z,1.10
2019-02-07T07:09:14.205Z,1.20
2019-02-07T07:12:01.143Z,1.20
2019-02-07T07:14:58.127Z,1.20
2019-02-07T07:17:45.922Z,1.20
2019-02-07T07:20:43.493Z,1.20
2019-02-07T07:23:33.452Z,1.30
2019-02-07T07:26:21.702Z,1.30
2019-02-07T07:29:08.511Z,1.30
2019-02-07T07:31:55.982Z,1.40
2019-02-07T07:34:44.183Z,1.40
2019-02-07T07:37:32.749Z,1.40
2019-02-07T07:40:13.122Z,1.40
2019-02-07T07:43:15.134Z,1.40
2019-02-07T07:46:01.956Z,1.50
2019-02-07T07:48:49.432Z,1.50
2019-02-07T07:51:36.433Z,1.50
2019-02-07T07:54:25.268Z,1.50
2019-02-07T07:57:19.516Z,1.50
2019-02-07T08:00:07.784Z,1.60
2019-02-07T08:02:54.715Z,1.60
2019-02-07T08:05:47.430Z,1.60
2019-02-07T08:08:35.995Z,1.60
2019-02-07T08:11:23.896Z,1.60
2019-02-07T08:14:12.536Z,1.70
2019-02-07T08:16:59.683Z,1.60
2019-02-07T08:19:46.899Z,1.60
2019-02-07T08:22:32.976Z,1.60
2019-02-07T08:25:33.225Z,1.70
2019-02-07T08:28:29.936Z,1.70
2019-02-07T08:31:24.429Z,1.70
2019-02-07T08:34:12.781Z,1.70
2019-02-07T08:37:16.265Z,1.70
2019-02-07T08:40:04.503Z,1.70
2019-02-07T08:42:54.084Z,1.70
2019-02-07T08:45:41.547Z,1.70
2019-02-07T08:48:41.956Z,1.70
2019-02-07T08:51:30.160Z,1.70
2019-02-07T08:54:24.158Z,1.70
2019-02-07T08:57:12.464Z,1.80
2019-02-07T09:00:03.851Z,1.80
2019-02-07T09:02:58.322Z,1.80
2019-02-07T09:05:49.892Z,1.90
2019-02-07T09:08:43.904Z,2.00
2019-02-07T09:11:30.598Z,2.10
2019-02-07T09:14:28.155Z,2.20
2019-02-07T09:17:28.764Z,2.30
2019-02-07T09:20:08.462Z,2.30
2019-02-07T09:22:55.129Z,2.50
2019-02-07T09:25:52.452Z,2.50
2019-02-07T09:28:40.670Z,2.60
2019-02-07T09:31:44.308Z,2.80
2019-02-07T09:34:31.553Z,2.90
2019-02-07T09:37:22.667Z,3.10
2019-02-07T09:40:01.916Z,3.00
2019-02-07T09:42:49.088Z,2.90
2019-02-07T09:45:38.095Z,2.90
2019-02-07T09:48:24.930Z,3.00
2019-02-07T09:51:13.191Z,3.30
2019-02-07T09:54:00.265Z,3.60
2019-02-07T09:56:51.448Z,3.80
2019-02-07T09:59:39.891Z,3.90
2019-02-07T10:02:27.060Z,3.70
2019-02-07T10:05:18.344Z,3.50
2019-02-07T10:08:09.387Z,3.40
2019-02-07T10:10:45.126Z,3.30
2019-02-07T10:13:23.007Z,3.10
2019-02-07T10:16:14.352Z,3.00
2019-02-07T10:18:58.270Z,2.90
2019-02-07T10:21:56.551Z,2.90
2019-02-07T10:24:40.764Z,2.90
2019-02-07T10:27:40.951Z,2.90
2019-02-07T10:30:42.351Z,2.90
2019-02-07T10:33:30.590Z,2.90
2019-02-07T10:36:21.832Z,2.90
2019-02-07T10:39:19.018Z,2.80
2019-02-07T10:42:01.455Z,2.80
2019-02-07T10:44:53.795Z,2.80
2019-02-07T10:47:43.329Z,2.80
2019-02-07T10:50:29.924Z,2.70
2019-02-07T10:53:26.990Z,2.70
2019-02-07T10:56:27.536Z,2.70
2019-02-07T10:59:21.180Z,2.70
2019-02-07T11:02:15.129Z,2.80
2019-02-07T11:05:04.842Z,2.80
2019-02-07T11:07:56.667Z,2.80
2019-02-07T11:10:50.724Z,2.90
2019-02-07T11:13:37.859Z,2.90
2019-02-07T11:16:38.264Z,3.00
2019-02-07T11:19:25.371Z,3.00
2019-02-07T11:22:16.508Z,2.90
2019-02-07T11:25:03.555Z,2.90
2019-02-07T11:27:48.951Z,2.90
2019-02-07T11:30:43.862Z,2.90
2019-02-07T11:33:31.093Z,2.90
2019-02-07T11:36:13.843Z,3.00
2019-02-07T11:39:01.022Z,3.00
2019-02-07T11:41:46.133Z,3.00
2019-02-07T11:44:38.310Z,3.00
2019-02-07T11:47:27.274Z,3.10
2019-02-07T11:50:09.309Z,3.10
2019-02-07T11:52:47.774Z,3.20
2019-02-07T11:55:34.735Z,3.10
2019-02-07T11:58:27.551Z,3.10
2019-02-07T12:01:14.983Z,3.10
2019-02-07T12:04:20.521Z,3.10
2019-02-07T12:07:06.198Z,3.10
2019-02-07T12:09:48.941Z,3.20
2019-02-07T12:12:35.598Z,3.20
2019-02-07T12:15:26.571Z,3.30
2019-02-07T12:18:18.020Z,3.20
2019-02-07T12:21:13.834Z,3.20
2019-02-07T12:24:14.391Z,3.20
2019-02-07T12:27:01.953Z,3.30
2019-02-07T12:29:48.822Z,3.30
2019-02-07T12:32:43.132Z,3.30
2019-02-07T12:35:34.576Z,3.40
2019-02-07T12:38:29.828Z,3.40
2019-02-07T12:41:27.253Z,3.50
2019-02-07T12:44:13.770Z,3.50
2019-02-07T12:47:10.585Z,3.50
2019-02-07T12:50:11.257Z,3.50
2019-02-07T12:53:11.775Z,3.50
2019-02-07T12:55:58.799Z,3.50
2019-02-07T12:58:46.309Z,3.50
2019-02-07T13:01:46.643Z,3.50
2019-02-07T13:04:44.714Z,3.50
2019-02-07T13:07:32.474Z,3.50
2019-02-07T13:10:32.736Z,3.50
2019-02-07T13:13:32.273Z,3.50
2019-02-07T13:20:34.796Z,3.60
2019-02-07T13:23:36.070Z,3.60
2019-02-07T13:26:31.256Z,3.60
2019-02-07T13:29:33.024Z,3.70
2019-02-07T13:32:21.148Z,3.70
2019-02-07T13:35:17.925Z,3.70
2019-02-07T13:38:49.161Z,3.70
2019-02-07T13:41:53.222Z,3.70
2019-02-07T13:44:50.007Z,3.70
2019-02-07T13:47:58.388Z,3.70
2019-02-07T13:50:44.289Z,3.70
2019-02-07T13:53:54.583Z,3.80
2019-02-07T13:56:51.940Z,3.80
2019-02-07T13:59:40.937Z,3.80
2019-02-07T14:02:20.356Z,3.90
2019-02-07T14:05:14.958Z,3.90
2019-02-07T14:08:37.588Z,3.90
2019-02-07T14:11:16.784Z,4.00
2019-02-07T14:14:21.291Z,4.00
2019-02-07T14:20:34.033Z,4.10
2019-02-07T14:24:32.235Z,4.00
2019-02-07T14:27:38.672Z,4.00
2019-02-07T14:30:57.139Z,4.00
2019-02-07T14:33:44.086Z,4.10
2019-02-07T14:37:07.739Z,4.30
2019-02-07T14:40:56.952Z,4.30
2019-02-07T14:46:56.168Z,4.40
2019-02-07T15:04:47.496Z,4.20
2019-02-07T15:08:05.480Z,4.20
2019-02-07T15:28:04.474Z,4.20
2019-02-07T15:32:58.757Z,4.30
2019-02-07T16:21:51.186Z,4.10
2019-02-07T16:24:20.497Z,4.00
2019-02-07T16:26:55.670Z,3.90
2019-02-07T16:29:33.475Z,3.90
2019-02-07T16:43:20.081Z,4.00
2019-02-07T16:46:40.542Z,4.00
2019-02-07T16:49:10.192Z,3.90
2019-02-07T16:51:39.802Z,3.80
2019-02-07T16:54:09.468Z,3.80
2019-02-07T16:56:38.791Z,3.80
2019-02-07T16:59:08.055Z,3.70
2019-02-07T17:01:37.597Z,3.60
2019-02-07T17:04:07.541Z,3.50
2019-02-07T17:06:37.221Z,3.40
2019-02-07T17:09:19.051Z,3.30
2019-02-07T17:11:48.370Z,3.30
2019-02-07T17:14:18.502Z,3.10
2019-02-07T17:16:48.118Z,3.10
2019-02-07T17:19:17.373Z,3.00
2019-02-07T17:21:46.626Z,2.90
2019-02-07T17:24:15.929Z,2.80
2019-02-07T17:26:45.270Z,3.00
2019-02-07T17:29:14.493Z,3.00
2019-02-07T17:31:43.966Z,3.10
2019-02-07T17:34:13.120Z,3.10
2019-02-07T17:36:42.880Z,3.10
2019-02-07T17:39:12.140Z,3.20
2019-02-07T17:41:41.525Z,3.20
2019-02-07T17:44:10.775Z,3.10
2019-02-07T17:46:40.414Z,3.00
2019-02-07T17:49:10.501Z,2.90
2019-02-07T17:51:39.964Z,2.80
2019-02-07T17:54:18.555Z,2.70
2019-02-07T17:56:40.452Z,2.70
2019-02-07T17:59:09.832Z,2.60
2019-02-07T18:01:39.355Z,2.50
2019-02-07T18:04:09.039Z,2.50
2019-02-07T18:06:38.437Z,2.40
2019-02-07T18:09:09.832Z,2.30
2019-02-07T18:11:39.472Z,2.20
2019-02-07T18:14:08.730Z,2.10
2019-02-07T18:16:38.337Z,2.00
2019-02-07T18:19:07.533Z,2.00
2019-02-07T18:21:37.168Z,2.00
2019-02-07T18:24:07.116Z,2.00
2019-02-07T18:26:36.429Z,2.00
2019-02-07T18:29:05.875Z,2.00
2019-02-07T18:31:35.394Z,2.10
2019-02-07T18:34:05.372Z,2.30
2019-02-07T18:36:34.711Z,2.40
2019-02-07T18:39:06.920Z,2.50
2019-02-07T18:41:36.201Z,2.60
2019-02-07T18:44:05.848Z,2.70
2019-02-07T18:49:40.643Z,2.80
2019-02-07T18:52:30.362Z,2.70
2019-02-07T18:55:00.329Z,2.70
2019-02-07T18:57:29.624Z,2.70
2019-02-07T19:00:00.916Z,2.70
2019-02-07T19:02:30.010Z,2.80
2019-02-07T19:04:59.622Z,2.80
2019-02-07T19:07:33.517Z,2.80
2019-02-07T19:10:02.843Z,2.80
2019-02-07T19:12:32.531Z,2.80
2019-02-07T19:15:01.868Z,2.70
2019-02-07T19:17:31.164Z,2.70
2019-02-07T19:20:00.602Z,2.70
2019-02-07T19:22:29.973Z,2.70
2019-02-07T19:24:59.285Z,2.60
2019-02-07T19:27:28.891Z,2.80
2019-02-07T19:29:58.737Z,2.80
2019-02-07T19:32:28.120Z,2.80
2019-02-07T19:34:57.419Z,2.90
2019-02-07T19:37:26.911Z,3.00
2019-02-07T19:39:56.530Z,3.10
2019-02-07T19:42:26.371Z,3.10
2019-02-07T19:44:56.108Z,3.00
2019-02-07T19:47:26.044Z,3.00
2019-02-07T19:49:55.696Z,3.00
2019-02-07T19:52:25.416Z,3.00
2019-02-07T19:54:55.758Z,3.10
2019-02-07T19:57:25.526Z,3.10
2019-02-07T19:59:54.945Z,3.10
2019-02-07T20:02:24.198Z,3.10
2019-02-07T20:04:53.725Z,3.00
2019-02-07T20:07:23.035Z,3.00
2019-02-07T20:09:52.475Z,2.90
2019-02-07T20:12:21.874Z,2.90
2019-02-07T20:14:51.255Z,2.80
2019-02-07T20:17:20.555Z,2.80
2019-02-07T20:19:50.549Z,2.80
2019-02-07T20:22:20.594Z,2.90
2019-02-07T20:24:50.345Z,3.00
2019-02-07T20:27:20.199Z,2.90
2019-02-07T20:29:49.876Z,2.90
2019-02-07T20:32:19.515Z,2.90
2019-02-07T20:34:48.895Z,2.90
2019-02-07T20:37:18.889Z,2.80
2019-02-07T20:39:48.128Z,2.80
2019-02-07T20:42:17.710Z,2.70
2019-02-07T20:44:46.961Z,2.60
2019-02-07T20:47:16.339Z,2.60
2019-02-07T20:49:46.552Z,2.60
2019-02-07T20:52:15.877Z,2.60
2019-02-07T20:54:45.219Z,2.50
2019-02-07T20:57:14.532Z,2.50
2019-02-07T20:59:44.186Z,2.40
2019-02-07T21:02:13.479Z,2.30
2019-02-07T21:04:42.685Z,2.40
2019-02-07T21:07:11.979Z,2.40
2019-02-07T21:09:41.983Z,2.40
2019-02-07T21:12:11.322Z,2.40
2019-02-07T21:14:41.028Z,2.40
2019-02-07T21:17:10.611Z,2.40
2019-02-07T21:19:40.238Z,2.30
2019-02-07T21:22:09.520Z,2.30
2019-02-07T21:24:39.523Z,2.30
2019-02-07T21:27:08.776Z,2.30
2019-02-07T21:29:38.360Z,2.40
2019-02-07T21:32:07.636Z,2.30
2019-02-07T21:34:36.966Z,2.30
2019-02-07T21:37:06.604Z,2.30
2019-02-07T21:39:35.957Z,2.30
2019-02-07T21:42:05.531Z,2.30
2019-02-07T21:44:34.851Z,2.20
2019-02-07T21:47:04.527Z,2.20
2019-02-07T21:49:34.284Z,2.20
2019-02-07T21:52:03.610Z,2.20
2019-02-07T21:54:33.184Z,2.20
2019-02-07T21:57:02.495Z,2.10
2019-02-07T21:59:31.892Z,2.00
2019-02-07T22:02:01.129Z,2.00
2019-02-07T22:04:30.504Z,1.90
2019-02-07T22:06:59.814Z,1.90
2019-02-07T22:09:29.773Z,2.00
2019-02-07T22:12:03.426Z,2.00
2019-02-07T22:14:33.043Z,2.10
2019-02-07T22:17:02.587Z,2.30
2019-02-07T22:19:31.891Z,2.30
2019-02-07T22:22:01.219Z,2.40
2019-02-07T22:24:30.969Z,2.40
2019-02-07T22:27:00.797Z,2.50
2019-02-07T22:29:30.314Z,2.50
2019-02-07T22:31:59.976Z,2.50
2019-02-07T22:34:29.567Z,2.40
2019-02-07T22:36:58.882Z,2.40
2019-02-07T22:39:28.509Z,2.40
2019-02-07T22:41:58.115Z,2.40
2019-02-07T22:44:27.879Z,2.40
2019-02-07T22:46:57.440Z,2.30
2019-02-07T22:49:26.696Z,2.30
2019-02-07T22:51:55.984Z,2.30
2019-02-07T22:54:25.287Z,2.30
2019-02-07T22:56:54.699Z,2.30
2019-02-07T22:59:23.992Z,2.20
2019-02-07T23:01:55.599Z,2.20
2019-02-07T23:04:26.240Z,2.20
2019-02-07T23:06:55.567Z,2.20
2019-02-07T23:09:25.524Z,2.20
2019-02-07T23:11:55.445Z,2.30
2019-02-07T23:14:28.270Z,2.40
2019-02-07T23:16:58.648Z,2.50
2019-02-07T23:19:37.757Z,2.60
2019-02-07T23:22:12.774Z,2.70
2019-02-07T23:24:43.983Z,2.80
2019-02-07T23:27:37.720Z,2.80
2019-02-07T23:30:11.811Z,2.90
2019-02-07T23:32:43.898Z,3.00
2019-02-07T23:35:20.464Z,3.10
2019-02-07T23:37:50.100Z,3.10
2019-02-07T23:40:23.124Z,3.20
2019-02-07T23:42:54.167Z,3.20
2019-02-07T23:45:25.891Z,3.20
2019-02-07T23:48:00.844Z,3.20
2019-02-07T23:50:33.001Z,3.20
2019-02-07T23:53:02.234Z,3.20
2019-02-07T23:55:31.473Z,3.30
2019-02-07T23:58:01.174Z,3.40
